Time;durP1;ratioP1;P1;durP2;ratioP2;P2;SDS_P1;SDS_P2;PMS_P1;PMS_P2;Temp;Humidity;BMP_temperature;BMP_pressure;BME280_temperature;BME280_humidity;BME280_pressure;Samples;Min_cycle;Max_cycle;Signal;HPM_P1;HPM_P2
2022/03/14 00:01:25;;;;;;;3.88;2.20;;;12.00;99.90;;;12.23;69.65;101098.56;5144785;28;20051;-72
2022/03/14 00:03:59;;;;;;;4.72;2.40;;;12.00;99.90;;;12.18;70.42;101105.34;5144869;28;20058;-72
2022/03/14 00:06:31;;;;;;;4.15;2.10;;;12.00;99.90;;;12.12;71.19;101115.59;5144734;28;20057;-72
2022/03/14 00:09:07;;;;;;;4.45;2.50;;;11.90;99.90;;;12.10;71.95;101143.44;5144558;28;20063;-71
2022/03/14 00:11:39;;;;;;;4.60;2.30;;;11.90;99.90;;;12.10;72.82;101153.88;5144881;28;20050;-72
2022/03/14 00:14:11;;;;;;;4.20;2.33;;;11.90;99.90;;;12.08;72.64;101152.94;5147907;28;20051;-71
2022/03/14 00:16:45;;;;;;;4.70;2.45;;;11.90;99.90;;;12.06;72.79;101157.25;5157285;28;20047;-71
2022/03/14 00:19:20;;;;;;;7.45;3.17;;;11.80;99.90;;;12.07;72.99;101161.63;5163997;28;20137;-72
2022/03/14 00:21:52;;;;;;;4.22;2.33;;;11.80;99.90;;;12.06;73.07;101154.63;5156131;28;20057;-72
2022/03/14 00:24:26;;;;;;;5.25;2.80;;;11.80;99.90;;;12.06;73.32;101162.47;5144018;28;20502;-71
2022/03/14 00:26:59;;;;;;;4.70;2.60;;;11.90;99.90;;;12.06;73.76;101165.09;5151724;28;20139;-72
2022/03/14 00:29:31;;;;;;;4.50;2.40;;;11.80;99.90;;;12.05;74.03;101171.13;5143659;28;20051;-72
2022/03/14 00:32:03;;;;;;;3.92;2.20;;;11.80;99.90;;;12.02;74.08;101171.03;5143960;28;20046;-72
2022/03/14 00:34:35;;;;;;;4.85;2.63;;;11.80;99.90;;;12.02;74.54;101160.56;5143471;28;20065;-71
2022/03/14 00:37:07;;;;;;;5.50;2.53;;;11.80;99.90;;;12.03;74.21;101175.41;5143398;28;20054;-71
2022/03/14 00:39:41;;;;;;;5.65;2.60;;;11.80;99.90;;;12.01;74.35;101179.69;5143530;28;20047;-72
2022/03/14 00:42:13;;;;;;;6.20;3.03;;;11.80;99.90;;;12.01;74.43;101187.53;5143630;28;20058;-71
2022/03/14 00:44:45;;;;;;;5.72;3.05;;;11.80;99.90;;;12.00;74.23;101190.06;5143497;28;20105;-72
2022/03/14 00:47:17;;;;;;;6.80;3.28;;;11.80;99.90;;;11.99;73.94;101191.81;5143961;28;20416;-72
2022/03/14 00:49:49;;;;;;;7.18;3.50;;;11.80;99.90;;;11.97;74.02;101197.81;5143326;28;20142;-72
2022/03/14 00:52:21;;;;;;;7.65;3.63;;;11.80;99.90;;;11.97;73.76;101198.72;5143739;28;20078;-71
2022/03/14 00:54:55;;;;;;;8.55;3.72;;;11.70;99.90;;;11.96;74.16;101194.31;5143671;28;20061;-71
2022/03/14 00:57:27;;;;;;;6.72;3.40;;;11.70;99.90;;;11.96;74.13;101202.16;5143731;28;20690;-73
2022/03/14 00:59:59;;;;;;;5.82;3.33;;;11.80;99.90;;;11.96;74.24;101210.00;5144511;28;20050;-72
2022/03/14 01:02:31;;;;;;;7.13;3.15;;;11.80;99.90;;;11.95;74.49;101216.06;5147792;28;20448;-71
2022/03/14 01:05:03;;;;;;;7.18;3.75;;;11.80;99.90;;;11.95;74.18;101226.50;5147905;28;20385;-72
2022/03/14 01:07:35;;;;;;;7.53;3.28;;;11.70;99.90;;;11.95;74.22;101226.50;5147665;28;20062;-72
2022/03/14 01:10:10;;;;;;;5.60;3.22;;;11.70;99.90;;;11.94;74.15;101222.13;5147819;28;20051;-73
2022/03/14 01:12:42;;;;;;;7.30;3.20;;;11.70;99.90;;;11.93;74.38;101223.84;5147512;28;20134;-73
2022/03/14 01:15:14;;;;;;;7.13;3.50;;;11.70;99.90;;;11.92;74.90;101226.38;5147702;28;20046;-72
2022/03/14 01:17:46;;;;;;;6.40;3.13;;;11.70;99.90;;;11.91;75.14;101230.72;5147203;28;20061;-74
2022/03/14 01:20:19;;;;;;;6.88;3.22;;;11.70;99.90;;;11.91;75.12;101241.16;5147173;28;20054;-71
2022/03/14 01:22:54;;;;;;;5.30;2.97;;;11.70;99.90;;;11.91;75.70;101246.41;5147415;28;20500;-71
2022/03/14 01:25:27;;;;;;;6.90;3.22;;;11.70;99.90;;;11.93;75.83;101254.28;5147416;28;20515;-73
2022/03/14 01:27:59;;;;;;;6.05;3.20;;;11.70;99.90;;;11.91;76.10;101258.56;5146892;28;20053;-72
2022/03/14 01:30:31;;;;;;;6.68;3.05;;;11.70;99.90;;;11.89;76.35;101253.31;5147167;28;20046;-72
2022/03/14 01:33:04;;;;;;;5.63;3.13;;;11.70;99.90;;;11.87;76.73;101254.97;5146971;28;20050;-72
2022/03/14 01:35:37;;;;;;;6.55;3.00;;;11.60;99.90;;;11.88;77.03;101266.31;5147036;28;20051;-71
2022/03/14 01:38:10;;;;;;;6.50;3.15;;;11.70;99.90;;;11.88;77.52;101276.75;5147200;28;20154;-73
2022/03/14 01:40:43;;;;;;;6.43;3.60;;;11.70;99.90;;;11.86;78.14;101274.06;5147332;28;20129;-71
2022/03/14 01:43:16;;;;;;;6.38;3.20;;;11.70;99.90;;;11.83;78.74;101270.47;5146798;28;20050;-75
2022/03/14 01:45:48;;;;;;;8.18;3.67;;;11.60;99.90;;;11.79;79.75;101271.13;5147163;28;20058;-71
2022/03/14 01:48:20;;;;;;;9.15;3.65;;;11.60;99.90;;;11.74;80.20;101272.72;5146977;28;20054;-70
2022/03/14 01:50:52;;;;;;;10.05;4.40;;;11.60;99.90;;;11.68;80.53;101270.75;5147056;28;20054;-73
2022/03/14 01:53:26;;;;;;;6.82;3.55;;;11.50;99.90;;;11.62;81.63;101273.13;5146645;28;20058;-69
2022/03/14 01:56:00;;;;;;;7.97;4.20;;;11.50;99.90;;;11.55;81.86;101271.13;5146485;28;20057;-71
2022/03/14 01:58:32;;;;;;;7.57;4.18;;;11.40;99.90;;;11.50;82.91;101277.88;5146848;28;20042;-72
2022/03/14 02:01:05;;;;;;;7.75;3.97;;;11.30;99.90;;;11.44;83.39;101281.13;5146855;28;20047;-72
2022/03/14 02:03:37;;;;;;;8.45;3.90;;;11.30;99.90;;;11.40;83.71;101287.06;5146743;28;20113;-70
2022/03/14 02:06:09;;;;;;;9.35;4.25;;;11.30;99.90;;;11.38;84.06;101284.41;5146826;28;20054;-72
2022/03/14 02:08:41;;;;;;;7.47;4.47;;;11.30;99.90;;;11.37;84.34;101286.97;5146886;28;20106;-72
2022/03/14 02:11:14;;;;;;;9.43;4.10;;;11.20;99.90;;;11.32;84.63;101294.59;5146167;28;20408;-73
2022/03/14 02:13:46;;;;;;;8.43;4.00;;;11.20;99.90;;;11.26;85.23;101294.34;5146278;28;20072;-73
2022/03/14 02:16:18;;;;;;;6.68;3.05;;;11.10;99.90;;;11.27;85.99;101303.06;5146116;28;20051;-72
2022/03/14 02:18:50;;;;;;;7.93;3.75;;;11.10;99.90;;;11.23;86.35;101299.47;5146514;28;20051;-73
2022/03/14 02:21:24;;;;;;;6.25;3.67;;;11.10;99.90;;;11.20;86.97;101293.22;5146493;28;20054;-71
2022/03/14 02:23:57;;;;;;;6.22;3.28;;;11.10;99.90;;;11.16;87.36;101304.38;5146776;28;20053;-71
2022/03/14 02:26:29;;;;;;;8.68;3.38;;;11.00;99.90;;;11.12;88.01;101306.84;5146270;28;20050;-73
2022/03/14 02:29:01;;;;;;;8.00;3.88;;;11.00;99.90;;;11.14;88.32;101315.63;5146191;28;20047;-72
2022/03/14 02:31:36;;;;;;;11.48;4.53;;;11.00;99.90;;;11.13;89.06;101320.78;5146377;28;20369;-72
2022/03/14 02:34:09;;;;;;;9.35;3.92;;;11.00;99.90;;;11.07;89.34;101323.13;5146202;28;20097;-72
2022/03/14 02:36:43;;;;;;;8.35;3.58;;;11.00;99.90;;;11.05;89.72;101320.47;5145991;28;20055;-72
2022/03/14 02:39:15;;;;;;;7.57;3.85;;;10.90;99.90;;;11.02;90.51;101320.38;5145878;28;20047;-72
2022/03/14 02:41:47;;;;;;;6.90;3.65;;;10.90;99.90;;;10.95;91.74;101323.50;5145629;28;20047;-72
2022/03/14 02:44:19;;;;;;;8.70;3.40;;;10.90;99.90;;;10.92;91.98;101323.41;5146110;28;20133;-72
2022/03/14 02:46:51;;;;;;;6.78;3.35;;;10.90;99.90;;;10.90;92.31;101327.69;5145975;28;20050;-70
2022/03/14 02:49:23;;;;;;;7.15;3.58;;;10.80;99.90;;;10.89;92.75;101328.50;5146156;28;20498;-73
2022/03/14 02:51:56;;;;;;;7.20;3.63;;;10.80;99.90;;;10.87;93.01;101331.03;5145939;28;20057;-72
2022/03/14 02:54:28;;;;;;;9.38;3.38;;;10.80;99.90;;;10.85;93.74;101339.63;5145691;28;20146;-73
2022/03/14 02:57:00;;;;;;;7.25;3.35;;;10.80;99.90;;;10.80;94.20;101335.94;5145721;28;20050;-73
2022/03/14 02:59:32;;;;;;;7.32;3.67;;;10.70;99.90;;;10.80;94.43;101343.75;5145982;28;20399;-74
2022/03/14 03:02:05;;;;;;;7.60;3.38;;;10.70;99.90;;;10.78;94.69;101342.81;5145899;28;20047;-72
2022/03/14 03:04:38;;;;;;;5.97;3.53;;;10.70;99.90;;;10.74;95.37;101349.59;5145484;28;20062;-73
2022/03/14 03:07:11;;;;;;;8.23;3.85;;;10.70;99.90;;;10.71;95.46;101352.09;5145306;28;20051;-72
2022/03/14 03:09:43;;;;;;;8.27;3.95;;;10.70;99.90;;;10.73;95.63;101357.34;5145623;28;20046;-73
2022/03/14 03:12:15;;;;;;;8.95;3.65;;;10.70;99.90;;;10.70;96.09;101357.25;5145685;28;20054;-73
2022/03/14 03:14:50;;;;;;;7.55;3.70;;;10.70;99.90;;;10.67;96.27;101362.31;5145404;28;20059;-72
2022/03/14 03:17:22;;;;;;;8.70;3.70;;;10.70;99.90;;;10.65;96.39;101363.97;5145464;28;20146;-73
2022/03/14 03:19:54;;;;;;;6.50;2.97;;;10.60;99.90;;;10.63;96.61;101365.59;5145378;28;20047;-73
2022/03/14 03:22:28;;;;;;;7.30;3.45;;;10.60;99.90;;;10.60;96.90;101367.25;5145541;28;20104;-72
2022/03/14 03:25:00;;;;;;;6.45;3.92;;;10.60;99.90;;;10.63;97.17;101362.97;5145139;28;20054;-73
2022/03/14 03:27:32;;;;;;;8.45;4.00;;;10.60;99.90;;;10.68;97.20;101384.94;5145388;28;20058;-73
2022/03/14 03:30:06;;;;;;;8.40;3.92;;;10.60;99.90;;;10.68;97.28;101380.63;5145487;28;20055;-73
2022/03/14 03:32:38;;;;;;;5.95;3.33;;;10.60;99.90;;;10.65;97.35;101385.72;5145501;28;20059;-72
2022/03/14 03:35:10;;;;;;;8.93;4.03;;;10.60;99.90;;;10.65;97.47;101390.03;5145224;28;20054;-72
2022/03/14 03:37:43;;;;;;;9.82;4.25;;;10.60;99.90;;;10.59;97.56;101396.75;5144928;28;20051;-72
2022/03/14 03:40:15;;;;;;;9.95;4.15;;;10.60;99.90;;;10.59;97.68;101404.56;5145195;28;20053;-73
2022/03/14 03:42:47;;;;;;;11.13;4.40;;;10.60;99.90;;;10.62;97.50;101405.53;5144780;28;20054;-72
2022/03/14 03:45:19;;;;;;;8.88;4.53;;;10.60;99.90;;;10.63;97.44;101412.53;5145331;28;20499;-74
2022/03/14 03:47:52;;;;;;;10.32;4.50;;;10.50;99.90;;;10.66;97.02;101415.28;5144699;28;20054;-74
2022/03/14 03:50:24;;;;;;;10.20;4.90;;;10.50;99.90;;;10.65;96.94;101421.31;5145088;28;20134;-72
2022/03/14 03:52:57;;;;;;;10.60;4.97;;;10.50;99.90;;;10.60;97.28;101421.13;5145259;28;20047;-72
2022/03/14 03:55:29;;;;;;;13.05;6.45;;;10.50;99.90;;;10.56;97.49;101421.78;5144912;28;20488;-73
2022/03/14 03:58:02;;;;;;;13.88;5.80;;;10.50;99.90;;;10.52;97.61;101425.09;5144608;28;20062;-74
2022/03/14 04:00:34;;;;;;;13.45;7.22;;;10.40;99.90;;;10.48;97.95;101429.25;5144417;28;20055;-73
2022/03/14 04:03:06;;;;;;;13.63;6.45;;;10.40;99.90;;;10.49;97.94;101430.16;5144709;28;20054;-72
2022/03/14 04:05:39;;;;;;;14.48;6.57;;;10.40;99.90;;;10.49;97.35;101436.25;5144267;28;20065;-72
2022/03/14 04:08:13;;;;;;;13.60;6.80;;;10.40;99.90;;;10.47;97.22;101443.13;5144174;28;20145;-72
2022/03/14 04:10:53;;;;;;;17.02;7.35;;;10.40;99.90;;;10.42;97.85;101439.41;5144449;28;20049;-73
2022/03/14 04:13:26;;;;;;;13.52;5.57;;;10.30;99.90;;;10.40;97.98;101445.38;5144690;28;20142;-73
2022/03/14 04:15:59;;;;;;;14.85;6.63;;;10.30;99.90;;;10.39;98.30;101444.50;5144593;28;20079;-73
2022/03/14 04:18:32;;;;;;;14.30;6.93;;;10.30;99.90;;;10.40;98.28;101448.88;5144345;28;20057;-72
2022/03/14 04:21:04;;;;;;;14.52;6.90;;;10.30;99.90;;;10.37;98.46;101453.97;5144360;28;20399;-73
2022/03/14 04:23:37;;;;;;;14.85;7.50;;;10.30;99.90;;;10.38;98.91;101458.38;5144485;28;20476;-72
2022/03/14 04:26:10;;;;;;;14.98;6.75;;;10.30;99.90;;;10.40;98.95;101458.41;5144102;28;20059;-73
2022/03/14 04:28:42;;;;;;;15.27;6.05;;;10.30;99.90;;;10.40;99.44;101467.13;5144420;28;20404;-74
2022/03/14 04:31:15;;;;;;;16.02;6.93;;;10.30;99.90;;;10.40;99.42;101472.34;5144410;28;20397;-73
2022/03/14 04:33:47;;;;;;;15.68;6.43;;;10.30;99.90;;;10.38;99.72;101471.38;5144366;28;20408;-75
2022/03/14 04:36:19;;;;;;;15.00;6.72;;;10.30;99.90;;;10.37;99.84;101472.22;5143403;28;20051;-72
2022/03/14 04:38:52;;;;;;;16.02;7.00;;;10.30;99.90;;;10.40;99.66;101474.94;5144009;28;20051;-72
2022/03/14 04:41:24;;;;;;;13.30;6.10;;;10.30;99.90;;;10.40;99.75;101477.56;5144168;28;20050;-73
2022/03/14 04:43:56;;;;;;;15.15;6.35;;;10.30;99.90;;;10.39;99.82;101481.00;5143979;28;20061;-73
2022/03/14 04:46:28;;;;;;;13.38;6.20;;;10.30;99.90;;;10.39;99.99;101486.19;5144222;28;20113;-74
2022/03/14 04:49:00;;;;;;;11.32;5.40;;;10.30;99.90;;;10.42;99.74;101491.53;5144011;28;20046;-74
2022/03/14 04:51:32;;;;;;;10.73;5.20;;;10.30;99.90;;;10.50;99.13;101495.41;5144234;28;20109;-74
2022/03/14 04:54:05;;;;;;;11.50;5.18;;;10.40;99.90;;;10.54;98.39;101502.53;5144158;28;20058;-74
2022/03/14 04:56:38;;;;;;;13.68;5.40;;;10.30;99.90;;;10.55;98.40;101503.44;5144156;28;20065;-71
2022/03/14 04:59:09;;;;;;;7.72;4.00;;;10.40;99.90;;;10.53;98.52;101513.78;5143605;28;20054;-71
2022/03/14 05:01:41;;;;;;;13.82;4.97;;;10.40;99.90;;;10.55;98.29;101516.47;5144092;28;20440;-73
2022/03/14 05:04:13;;;;;;;7.68;3.65;;;10.40;99.90;;;10.55;98.51;101513.84;5143831;28;20050;-73
2022/03/14 05:06:46;;;;;;;10.70;4.95;;;10.40;99.90;;;10.52;98.65;101519.84;5144174;28;20469;-73
2022/03/14 05:09:19;;;;;;;9.40;4.72;;;10.40;99.90;;;10.56;98.39;101519.16;5144303;28;20055;-73
2022/03/14 05:11:51;;;;;;;10.55;4.90;;;10.50;99.90;;;10.56;98.20;101526.06;5143986;28;20511;-73
2022/03/14 05:14:23;;;;;;;10.00;5.15;;;10.40;99.90;;;10.52;98.69;101545.91;5144001;28;20057;-72
2022/03/14 05:16:55;;;;;;;11.27;4.60;;;10.40;99.90;;;10.53;98.61;101542.47;5143627;28;20050;-72
2022/03/14 05:19:27;;;;;;;8.27;4.40;;;10.40;99.90;;;10.56;98.39;101546.91;5143747;28;20051;-72
2022/03/14 05:21:59;;;;;;;8.90;4.03;;;10.40;99.90;;;10.55;98.35;101550.34;5143439;28;20054;-73
2022/03/14 05:24:32;;;;;;;7.75;3.22;;;10.40;99.90;;;10.54;97.93;101548.56;5143994;28;20047;-73
2022/03/14 05:27:06;;;;;;;7.30;3.70;;;10.40;99.90;;;10.55;96.98;101551.25;5143737;28;20047;-74
2022/03/14 05:29:38;;;;;;;5.03;2.72;;;10.40;99.90;;;10.54;96.79;101559.88;5143779;28;20058;-73
2022/03/14 05:32:10;;;;;;;6.47;2.58;;;10.40;99.90;;;10.52;96.59;101560.66;5143808;28;20492;-74
2022/03/14 05:34:42;;;;;;;5.10;2.20;;;10.40;99.90;;;10.56;95.66;101563.50;5143752;28;20153;-72
2022/03/14 05:37:15;;;;;;;4.53;2.58;;;10.40;99.90;;;10.51;96.24;101564.09;5143238;28;20058;-73
2022/03/14 05:39:49;;;;;;;6.65;3.03;;;10.40;99.90;;;10.51;96.59;101566.69;5143639;28;20054;-74
2022/03/14 05:42:21;;;;;;;5.00;2.72;;;10.40;99.90;;;10.51;96.86;101566.69;5175757;23;20051;-83
2022/03/14 05:44:53;;;;;;;6.13;2.95;;;10.40;99.90;;;10.50;96.96;101573.63;5173127;28;20062;-83
2022/03/14 05:47:25;;;;;;;6.65;2.90;;;10.40;99.90;;;10.51;97.22;101575.41;5179069;28;20058;-85
2022/03/14 05:49:57;;;;;;;6.65;2.80;;;10.40;99.90;;;10.52;97.16;101579.78;5188992;28;20058;-83
2022/03/14 05:52:29;;;;;;;5.80;2.90;;;10.40;99.90;;;10.50;97.53;101580.56;5178195;28;20051;-85
2022/03/14 05:55:03;;;;;;;6.75;2.90;;;10.40;99.90;;;10.52;97.82;101590.22;5156662;28;20098;-85
2022/03/14 05:57:35;;;;;;;6.85;2.92;;;10.40;99.90;;;10.51;97.71;101595.38;5156552;28;20054;-84
2022/03/14 06:00:09;;;;;;;5.53;2.40;;;10.40;99.90;;;10.50;97.86;101589.25;5157194;28;20046;-84
2022/03/14 06:02:46;;;;;;;5.50;3.22;;;10.40;99.90;;;10.51;98.13;101595.38;5156017;28;20058;-84
2022/03/14 06:05:20;;;;;;;5.40;2.92;;;10.40;99.90;;;10.50;98.09;101602.31;5155765;28;20061;-84
2022/03/14 06:07:52;;;;;;;5.30;2.30;;;10.40;99.90;;;10.49;97.92;101604.81;5156128;28;20067;-84
2022/03/14 06:10:27;;;;;;;5.10;2.13;;;10.40;99.90;;;10.51;97.75;101611.91;5156236;28;20055;-85
2022/03/14 06:12:59;;;;;;;6.25;2.40;;;10.40;99.90;;;10.49;97.58;101615.22;5155948;28;20058;-84
2022/03/14 06:15:31;;;;;;;5.72;2.45;;;10.40;99.90;;;10.46;97.77;101621.22;5156247;28;20054;-85
2022/03/14 06:18:04;;;;;;;4.68;2.47;;;10.40;99.90;;;10.48;98.08;101632.59;5155243;28;20421;-85
2022/03/14 06:20:36;;;;;;;5.53;2.75;;;10.40;99.90;;;10.45;98.25;101635.06;5154264;28;20043;-85
2022/03/14 06:23:08;;;;;;;4.10;1.92;;;10.30;99.90;;;10.48;98.18;101643.03;5149149;28;20566;-82
2022/03/14 06:25:41;;;;;;;6.68;2.60;;;10.40;99.90;;;10.47;98.02;101638.63;5146705;28;20043;-84
2022/03/14 06:28:13;;;;;;;5.13;2.05;;;10.40;99.90;;;10.48;98.25;101640.41;5149785;28;20051;-82
2022/03/14 06:30:46;;;;;;;4.30;1.95;;;10.40;99.90;;;10.51;97.92;101648.41;5150459;28;20098;-84
2022/03/14 06:33:18;;;;;;;5.30;2.38;;;10.30;99.90;;;10.48;98.26;101637.81;5154564;28;20051;-85
2022/03/14 06:35:51;;;;;;;6.90;2.63;;;10.40;99.90;;;10.52;98.18;101649.28;5154736;28;20081;-84
2022/03/14 06:38:23;;;;;;;8.68;2.80;;;10.40;99.90;;;10.52;98.13;101649.28;5154466;28;20043;-83
2022/03/14 06:40:56;;;;;;;9.98;3.15;;;10.40;99.90;;;10.54;98.18;101663.28;5153597;28;20050;-84
2022/03/14 06:43:29;;;;;;;6.88;2.80;;;10.40;99.90;;;10.51;98.11;101668.38;5154672;28;20432;-83
2022/03/14 06:46:02;;;;;;;7.90;3.22;;;10.30;99.90;;;10.53;98.32;101667.59;5154929;28;20089;-84
2022/03/14 06:48:39;;;;;;;10.38;2.85;;;10.40;99.90;;;10.54;98.31;101669.38;5147125;28;20082;-84
2022/03/14 06:51:11;;;;;;;5.75;2.28;;;10.40;99.90;;;10.59;98.14;101672.22;5155597;28;20050;-83
2022/03/14 06:53:43;;;;;;;7.80;2.67;;;10.40;99.90;;;10.59;97.88;101673.13;5156144;28;20050;-85
2022/03/14 06:56:17;;;;;;;8.02;3.33;;;10.40;99.90;;;10.58;97.85;101676.56;5155527;28;20053;-84
2022/03/14 06:58:49;;;;;;;10.60;3.25;;;10.40;99.90;;;10.59;97.80;101683.56;5152088;28;20086;-80
2022/03/14 07:01:22;;;;;;;10.18;3.47;;;10.40;99.90;;;10.51;98.13;101668.38;5150703;28;20055;-78
2022/03/14 07:03:54;;;;;;;11.02;2.90;;;10.50;99.90;;;10.61;97.84;101691.44;5149873;28;20061;-81
2022/03/14 07:06:26;;;;;;;10.15;3.00;;;10.50;99.90;;;10.65;97.33;101687.28;5147960;28;20047;-78
2022/03/14 07:08:58;;;;;;;11.25;3.20;;;10.50;99.90;;;10.67;97.21;101690.84;5148407;28;20046;-79
2022/03/14 07:11:32;;;;;;;10.20;3.00;;;10.50;99.90;;;10.67;97.30;101696.97;5148591;28;20490;-79
2022/03/14 07:14:04;;;;;;;6.63;3.03;;;10.50;99.90;;;10.71;97.15;101698.00;5148910;28;20055;-79
2022/03/14 07:16:36;;;;;;;7.22;2.67;;;10.50;99.90;;;10.74;96.83;101701.66;5148973;28;20061;-80
2022/03/14 07:19:08;;;;;;;7.22;2.20;;;10.50;99.90;;;10.77;96.42;101706.13;5148232;28;20066;-79
2022/03/14 07:21:40;;;;;;;6.35;2.42;;;10.60;99.90;;;10.82;96.18;101710.75;5148691;28;20424;-79
2022/03/14 07:24:12;;;;;;;5.43;2.33;;;10.60;99.90;;;10.86;95.25;101719.59;5141150;28;20420;-79
2022/03/14 07:26:45;;;;;;;13.73;3.25;;;10.60;99.90;;;10.83;94.80;101722.97;5148036;28;20046;-79
2022/03/14 07:29:17;;;;;;;11.27;2.70;;;10.70;99.90;;;10.84;94.54;101729.09;5141887;28;20047;-80
2022/03/14 07:31:49;;;;;;;7.55;2.33;;;10.60;99.90;;;10.84;94.42;101729.97;5148430;28;20047;-80
2022/03/14 07:34:21;;;;;;;9.25;2.90;;;10.60;99.90;;;10.92;94.10;101727.72;5148572;28;20066;-80
2022/03/14 07:36:53;;;;;;;9.52;3.08;;;10.70;99.90;;;10.94;93.81;101741.72;5148873;28;20051;-81
2022/03/14 07:39:25;;;;;;;11.35;3.58;;;10.70;99.90;;;10.97;93.58;101734.06;5150045;28;20061;-78
2022/03/14 07:41:58;;;;;;;14.25;3.78;;;10.80;99.90;;;11.07;93.28;101735.38;5149156;28;20057;-80
2022/03/14 07:44:30;;;;;;;10.23;3.30;;;10.80;99.90;;;11.18;93.32;101743.75;5148548;28;20053;-79
2022/03/14 07:47:04;;;;;;;15.65;3.40;;;10.90;99.90;;;11.30;93.06;101739.09;5148689;28;20147;-79
2022/03/14 07:49:36;;;;;;;11.88;3.45;;;11.00;99.90;;;11.42;92.75;101737.06;5148174;28;20138;-78
2022/03/14 07:52:08;;;;;;;10.10;3.20;;;11.10;99.90;;;11.50;92.06;101747.84;5148456;28;20134;-78
2022/03/14 07:54:40;;;;;;;9.63;3.08;;;11.10;99.90;;;11.51;91.40;101740.09;5147530;28;20046;-78
2022/03/14 07:57:14;;;;;;;5.78;2.42;;;11.20;99.90;;;11.60;90.52;101750.94;5147583;28;20065;-80
2022/03/14 07:59:46;;;;;;;6.63;2.53;;;11.30;99.90;;;11.64;89.88;101739.81;5147715;28;20047;-80
2022/03/14 08:02:19;;;;;;;6.80;2.47;;;11.30;99.90;;;11.62;89.23;101744.09;5146778;28;20042;-80
2022/03/14 08:04:51;;;;;;;5.10;1.92;;;11.40;99.90;;;11.78;89.00;101755.22;5149655;28;20051;-81
2022/03/14 08:07:23;;;;;;;7.32;2.65;;;11.40;99.90;;;11.86;88.60;101759.09;5149997;28;20557;-80
2022/03/14 08:09:56;;;;;;;7.07;2.38;;;11.50;99.90;;;11.97;88.01;101770.94;5149068;28;20056;-80
2022/03/14 08:12:29;;;;;;;5.35;2.22;;;11.60;99.90;;;12.07;86.50;101773.13;5150501;28;20051;-80
2022/03/14 08:15:01;;;;;;;4.53;1.73;;;11.60;99.90;;;12.12;84.94;101783.78;5151348;28;20161;-82
2022/03/14 08:17:35;;;;;;;3.72;2.40;;;11.70;99.90;;;12.18;84.18;101790.16;5150168;28;20154;-83
2022/03/14 08:20:08;;;;;;;3.22;2.00;;;11.70;99.90;;;12.25;83.67;101795.66;5151390;28;20047;-82
2022/03/14 08:22:41;;;;;;;2.53;1.77;;;11.70;99.90;;;12.33;82.94;101794.31;5151243;28;20055;-80
2022/03/14 08:25:14;;;;;;;4.28;1.90;;;11.90;99.90;;;12.46;81.93;101807.09;5150150;28;20050;-81
2022/03/14 08:27:47;;;;;;;5.35;2.20;;;12.00;99.90;;;12.65;82.20;101809.66;5149910;28;20043;-81
2022/03/14 08:30:20;;;;;;;5.03;2.30;;;12.10;99.90;;;13.11;82.35;101811.56;5149544;28;20055;-83
2022/03/14 08:32:55;;;;;;;3.83;1.90;;;12.30;99.90;;;13.76;79.84;101810.66;5149897;28;20082;-84
2022/03/14 08:35:28;;;;;;;3.72;1.38;;;12.70;99.90;;;14.42;67.93;101820.03;5149444;28;20050;-83
2022/03/14 08:38:00;;;;;;;5.53;2.13;;;13.30;99.90;;;15.28;66.03;101823.84;5154051;28;20137;-82
2022/03/14 08:40:32;;;;;;;4.47;1.98;;;14.20;99.90;;;15.64;64.47;101829.38;5156050;28;20409;-82
2022/03/14 08:43:05;;;;;;;5.65;1.80;;;14.70;99.90;;;15.81;63.58;101837.78;5156342;28;20070;-81
2022/03/14 08:45:43;;;;;;;3.33;1.70;;;15.00;99.90;;;16.01;62.02;101829.63;5156333;28;20054;-83
2022/03/14 08:48:15;;;;;;;2.75;1.35;;;15.40;99.30;;;16.42;60.77;101845.69;5159617;28;20050;-86
2022/03/14 08:50:47;;;;;;;3.05;1.55;;;15.70;98.20;;;16.74;59.28;101838.69;5155448;28;20428;-82
2022/03/14 08:53:19;;;;;;;4.15;1.42;;;16.00;97.20;;;16.91;58.88;101841.75;5144545;28;20058;-81
2022/03/14 08:55:52;;;;;;;2.53;1.23;;;16.30;96.60;;;16.84;57.75;101847.72;5130819;29;20055;-83
2022/03/14 08:58:25;;;;;;;3.45;1.50;;;16.30;95.40;;;16.63;58.60;101855.03;5133317;29;20058;-82
2022/03/14 09:00:59;;;;;;;1.02;0.93;;;16.20;95.50;;;16.51;58.74;101851.22;5134190;29;20051;-83
2022/03/14 09:03:31;;;;;;;3.63;2.03;;;16.20;95.60;;;16.26;59.04;101849.63;5129640;28;20473;-84
2022/03/14 09:06:03;;;;;;;6.28;1.90;;;16.00;95.20;;;15.80;59.39;101863.19;5130348;29;20055;-85
2022/03/14 09:08:35;;;;;;;3.70;1.15;;;15.60;95.30;;;15.43;61.80;101867.25;5133174;29;20134;-83
2022/03/14 09:11:07;;;;;;;3.40;2.05;;;15.20;97.40;;;15.37;62.11;101874.94;5131015;29;20055;-82
2022/03/14 09:13:41;;;;;;;2.80;1.65;;;15.20;97.50;;;15.22;62.16;101870.94;5131690;28;20134;-82
2022/03/14 09:16:13;;;;;;;5.88;2.45;;;15.00;97.60;;;15.09;63.62;101869.63;5133257;29;20142;-81
2022/03/14 09:18:45;;;;;;;4.60;1.92;;;14.70;98.90;;;15.08;64.48;101873.09;5131090;29;20058;-82
2022/03/14 09:21:17;;;;;;;5.47;2.33;;;14.70;99.80;;;15.07;64.35;101889.72;5148433;28;20042;-82
2022/03/14 09:23:50;;;;;;;3.30;1.70;;;14.60;99.90;;;15.09;63.57;101885.38;5147785;28;20043;-83
2022/03/14 09:26:22;;;;;;;4.18;1.60;;;14.50;99.70;;;14.96;63.74;101884.09;5137299;29;20055;-83
2022/03/14 09:28:55;;;;;;;6.00;2.03;;;14.40;99.90;;;14.85;64.90;101881.06;5136462;29;20059;-82
2022/03/14 09:31:27;;;;;;;3.33;1.15;;;14.40;99.90;;;14.77;64.89;101885.16;5137068;29;20054;-82
2022/03/14 09:34:00;;;;;;;3.53;1.92;;;14.30;99.90;;;14.68;64.96;101890.13;5139268;28;20052;-82
2022/03/14 09:36:32;;;;;;;6.35;2.13;;;14.20;99.90;;;14.62;64.56;101887.28;5138388;28;20106;-83
2022/03/14 09:39:05;;;;;;;3.88;2.03;;;14.10;99.90;;;14.39;65.33;101895.16;5136810;29;20051;-82
2022/03/14 09:41:39;;;;;;;3.90;1.63;;;14.00;99.90;;;14.22;66.63;101896.28;5136654;28;20044;-82
2022/03/14 09:44:16;;;;;;;4.70;2.35;;;13.90;99.90;;;14.08;67.41;101897.47;5136261;28;20465;-83
2022/03/14 09:46:49;;;;;;;3.60;2.45;;;13.80;99.90;;;13.92;67.86;101905.59;5136851;28;20055;-83
2022/03/14 09:49:23;;;;;;;5.00;1.73;;;13.60;99.90;;;13.77;68.25;101906.78;5138621;28;20051;-83
2022/03/14 09:51:56;;;;;;;3.33;2.00;;;13.50;99.90;;;13.61;68.62;101904.38;5137893;28;20054;-82
2022/03/14 09:54:28;;;;;;;3.50;1.73;;;13.30;99.90;;;13.57;69.21;101907.72;5138927;28;20055;-83
2022/03/14 09:57:01;;;;;;;2.60;1.80;;;13.30;99.90;;;13.53;69.81;101911.03;5137602;29;20094;-83
2022/03/14 09:59:36;;;;;;;2.88;1.83;;;13.20;99.90;;;13.51;70.23;101917.97;5138677;29;20055;-83
2022/03/14 10:02:11;;;;;;;4.05;1.92;;;13.20;99.90;;;13.56;70.49;101927.78;5137815;28;20051;-82
2022/03/14 10:04:43;;;;;;;3.85;1.85;;;13.10;99.90;;;13.60;70.74;101923.56;5141129;28;20051;-84
2022/03/14 10:07:16;;;;;;;4.88;2.03;;;13.20;99.90;;;13.63;71.00;101928.00;5143815;29;20585;-85
2022/03/14 10:09:51;;;;;;;4.10;2.45;;;13.20;99.90;;;13.62;71.30;101927.13;5143133;28;20058;-84
2022/03/14 10:12:23;;;;;;;;;;;13.20;99.90;;;13.56;71.44;101927.78;5144079;28;20055;-82
2022/03/14 10:14:56;;;;;;;5.70;2.15;;;13.20;99.90;;;13.48;71.44;101926.56;5142890;29;20021;-84
2022/03/14 10:17:28;;;;;;;4.40;2.00;;;13.10;99.90;;;13.44;71.57;101931.63;5142676;28;20055;-82
2022/03/14 10:20:02;;;;;;;3.85;1.85;;;13.10;99.90;;;13.40;71.52;101925.38;5143676;28;20083;-84
2022/03/14 10:22:36;;;;;;;2.72;1.60;;;13.10;99.90;;;13.39;71.45;101934.06;5142610;28;20051;-84
2022/03/14 10:25:13;;;;;;;4.70;1.40;;;13.00;99.90;;;13.40;71.20;101940.19;5144131;28;20073;-84
2022/03/14 10:27:47;;;;;;;6.05;1.63;;;13.00;99.90;;;13.45;71.14;101943.91;5144579;28;20082;-83
2022/03/14 10:30:29;;;;;;;3.03;1.65;;;13.00;99.90;;;13.46;71.24;101946.56;5145087;28;20047;-82
2022/03/14 10:33:12;;;;;;;;;;;13.10;99.90;;;13.46;70.09;101953.53;5144759;28;20051;-84
2022/03/14 10:35:45;;;;;;;5.25;1.60;;;13.00;99.90;;;13.40;69.66;101951.56;5145369;29;19922;-83